ASL01D EGKK-LYBE
Flight info
| Callsign | ASL01D |
|---|---|
| Flight time | 2h 15m |
| Altitude | 37000 |
| Route | MIMFO Y312 DVR UL9 KONAN UL607 MATUG DCT AMASI DCT BOMBI DCT MIQ L605 ESEGA DCT VELOM DCT GOTAR DCT BABIT DCT RIGMU |
| Aircraft | A320/M-SDE3FGHIRWY/LB1 |
Departure
| Time | 2026-04-15 11:42 |
|---|---|
| Airport | London Gatwick Airport (EGKK) |
Arrival
| Time | 2026-04-15 13:57 |
|---|---|
| Airport | Belgrade Nikola Tesla Airport (LYBE) |
| Time | Latitude | Longitude | Altitude | Speed | Heading |
|---|---|---|---|---|---|
| 2026-04-15 11:08 | 51.15598 | -0.16781 | 211 ft | 0 kts | 168° |
| 2026-04-15 11:28 | 51.15599 | -0.16781 | 203 ft | 1 kts | 168° |
| 2026-04-15 11:28 | 51.15622 | -0.16786 | 206 ft | 4 kts | 186° |
| 2026-04-15 11:28 | 51.15648 | -0.16775 | 209 ft | 4 kts | 207° |
| 2026-04-15 11:29 | 51.15670 | -0.16752 | 212 ft | 4 kts | 224° |
| 2026-04-15 11:29 | 51.15687 | -0.16719 | 206 ft | 4 kts | 246° |
| 2026-04-15 11:29 | 51.15691 | -0.16702 | 214 ft | 0 kts | 257° |
| 2026-04-15 11:32 | 51.15689 | -0.16718 | 206 ft | 3 kts | 257° |
| 2026-04-15 11:32 | 51.15683 | -0.16758 | 216 ft | 5 kts | 256° |
| 2026-04-15 11:32 | 51.15673 | -0.16821 | 207 ft | 7 kts | 256° |
| 2026-04-15 11:33 | 51.15661 | -0.16908 | 211 ft | 9 kts | 258° |
| 2026-04-15 11:33 | 51.15646 | -0.17018 | 210 ft | 11 kts | 258° |
| 2026-04-15 11:33 | 51.15628 | -0.17153 | 209 ft | 14 kts | 257° |
| 2026-04-15 11:33 | 51.15617 | -0.17226 | 215 ft | 0 kts | 257° |
| 2026-04-15 11:34 | 51.15616 | -0.17235 | 214 ft | 1 kts | 257° |
| 2026-04-15 11:34 | 51.15613 | -0.17254 | 211 ft | 2 kts | 256° |
| 2026-04-15 11:34 | 51.15607 | -0.17282 | 206 ft | 3 kts | 246° |
| 2026-04-15 11:35 | 51.15590 | -0.17309 | 210 ft | 4 kts | 210° |
| 2026-04-15 11:35 | 51.15574 | -0.17315 | 207 ft | 1 kts | 191° |
| 2026-04-15 11:35 | 51.15564 | -0.17314 | 206 ft | 2 kts | 175° |
| 2026-04-15 11:35 | 51.15530 | -0.17304 | 204 ft | 8 kts | 169° |
| 2026-04-15 11:36 | 51.15477 | -0.17329 | 212 ft | 10 kts | 227° |
| 2026-04-15 11:36 | 51.15424 | -0.17392 | 210 ft | 11 kts | 184° |
| 2026-04-15 11:36 | 51.15361 | -0.17374 | 213 ft | 3 kts | 169° |
| 2026-04-15 11:36 | 51.15327 | -0.17364 | 204 ft | 6 kts | 169° |
| 2026-04-15 11:37 | 51.15318 | -0.17348 | 213 ft | 4 kts | 118° |
| 2026-04-15 11:37 | 51.15317 | -0.17266 | 213 ft | 10 kts | 82° |
| 2026-04-15 11:37 | 51.15331 | -0.17148 | 203 ft | 12 kts | 79° |
| 2026-04-15 11:37 | 51.15348 | -0.17006 | 207 ft | 14 kts | 78° |
| 2026-04-15 11:38 | 51.15365 | -0.16860 | 205 ft | 12 kts | 91° |
| 2026-04-15 11:38 | 51.15304 | -0.16812 | 208 ft | 12 kts | 191° |
| 2026-04-15 11:38 | 51.15261 | -0.16817 | 204 ft | 0 kts | 175° |
| 2026-04-15 11:39 | 51.15257 | -0.16817 | 210 ft | 2 kts | 175° |
| 2026-04-15 11:39 | 51.15238 | -0.16811 | 206 ft | 0 kts | 167° |
| 2026-04-15 11:40 | 51.15235 | -0.16810 | 207 ft | 2 kts | 167° |
| 2026-04-15 11:40 | 51.15209 | -0.16801 | 208 ft | 6 kts | 167° |
| 2026-04-15 11:40 | 51.15154 | -0.16783 | 207 ft | 11 kts | 176° |
| 2026-04-15 11:41 | 51.15109 | -0.16878 | 204 ft | 8 kts | 257° |
| 2026-04-15 11:41 | 51.15108 | -0.16881 | 203 ft | 0 kts | 257° |
| 2026-04-15 11:41 | 51.15091 | -0.17011 | 206 ft | 46 kts | 258° |
| 2026-04-15 11:41 | 51.14956 | -0.17985 | 215 ft | 129 kts | 258° |
| 2026-04-15 11:42 | 51.14725 | -0.19613 | 538 ft | 161 kts | 251° |
| 2026-04-15 11:42 | 51.14454 | -0.21412 | 1398 ft | 173 kts | 251° |
| 2026-04-15 11:42 | 51.14179 | -0.23348 | 2218 ft | 187 kts | 252° |
| 2026-04-15 11:42 | 51.13902 | -0.25445 | 2675 ft | 201 kts | 252° |
| 2026-04-15 11:43 | 51.13617 | -0.27662 | 3378 ft | 205 kts | 253° |
| 2026-04-15 11:43 | 51.13342 | -0.29918 | 3960 ft | 212 kts | 258° |
| 2026-04-15 11:43 | 51.13470 | -0.32291 | 4009 ft | 222 kts | 280° |
| 2026-04-15 11:43 | 51.14222 | -0.34494 | 4003 ft | 234 kts | 303° |
| 2026-04-15 11:44 | 51.15538 | -0.36117 | 4006 ft | 248 kts | 329° |
| 2026-04-15 11:44 | 51.17247 | -0.36708 | 4009 ft | 259 kts | 358° |
| 2026-04-15 11:44 | 51.18989 | -0.35984 | 4007 ft | 263 kts | 29° |
| 2026-04-15 11:44 | 51.20379 | -0.34038 | 4259 ft | 276 kts | 55° |
| 2026-04-15 11:45 | 51.21208 | -0.31243 | 4831 ft | 283 kts | 85° |
| 2026-04-15 11:45 | 51.21351 | -0.28130 | 5661 ft | 282 kts | 95° |
| 2026-04-15 11:45 | 51.21364 | -0.25029 | 6555 ft | 285 kts | 96° |
| 2026-04-15 11:45 | 51.21296 | -0.21923 | 7671 ft | 268 kts | 104° |
| 2026-04-15 11:46 | 51.21047 | -0.18977 | 8526 ft | 276 kts | 104° |
| 2026-04-15 11:46 | 51.20874 | -0.15814 | 9059 ft | 296 kts | 94° |
| 2026-04-15 11:46 | 51.21083 | -0.12488 | 9836 ft | 306 kts | 85° |
| 2026-04-15 11:46 | 51.21515 | -0.09089 | 10391 ft | 322 kts | 82° |
| 2026-04-15 11:47 | 51.22012 | -0.05523 | 10626 ft | 343 kts | 87° |
| 2026-04-15 11:47 | 51.22100 | -0.01640 | 10849 ft | 358 kts | 96° |
| 2026-04-15 11:47 | 51.22050 | 0.02370 | 11258 ft | 365 kts | 96° |
| 2026-04-15 11:47 | 51.21985 | 0.06449 | 11881 ft | 369 kts | 96° |
| 2026-04-15 11:48 | 51.21920 | 0.10559 | 12519 ft | 372 kts | 96° |
| 2026-04-15 11:48 | 51.21860 | 0.14703 | 13181 ft | 376 kts | 96° |
| 2026-04-15 11:48 | 51.21804 | 0.18836 | 13797 ft | 379 kts | 96° |
| 2026-04-15 11:48 | 51.21750 | 0.23054 | 14355 ft | 383 kts | 96° |
| 2026-04-15 11:49 | 51.21695 | 0.27317 | 14888 ft | 386 kts | 96° |
| 2026-04-15 11:49 | 51.21641 | 0.31629 | 15420 ft | 390 kts | 96° |
| 2026-04-15 11:49 | 51.21588 | 0.35968 | 15961 ft | 394 kts | 96° |
| 2026-04-15 11:49 | 51.21533 | 0.40363 | 16519 ft | 398 kts | 96° |
| 2026-04-15 11:50 | 51.21478 | 0.44794 | 17077 ft | 401 kts | 96° |
| 2026-04-15 11:50 | 51.21424 | 0.49250 | 17728 ft | 401 kts | 96° |
| 2026-04-15 11:50 | 51.21358 | 0.53714 | 18369 ft | 401 kts | 98° |
| 2026-04-15 11:50 | 51.21219 | 0.56643 | 18777 ft | 399 kts | 101° |
| 2026-04-15 11:51 | 51.20939 | 0.61047 | 19444 ft | 399 kts | 101° |
| 2026-04-15 11:51 | 51.20654 | 0.65455 | 20121 ft | 399 kts | 101° |
| 2026-04-15 11:51 | 51.20283 | 0.71291 | 21036 ft | 398 kts | 101° |
| 2026-04-15 11:51 | 51.20012 | 0.75668 | 21749 ft | 396 kts | 101° |
| 2026-04-15 11:52 | 51.19834 | 0.78615 | 22236 ft | 394 kts | 102° |
| 2026-04-15 11:52 | 51.19579 | 0.82901 | 22961 ft | 391 kts | 102° |
| 2026-04-15 11:52 | 51.19330 | 0.87203 | 23684 ft | 388 kts | 102° |
| 2026-04-15 11:52 | 51.19091 | 0.91472 | 24322 ft | 385 kts | 102° |
| 2026-04-15 11:53 | 51.18864 | 0.95709 | 24991 ft | 381 kts | 101° |
| 2026-04-15 11:53 | 51.18632 | 0.99891 | 25614 ft | 376 kts | 102° |
| 2026-04-15 11:53 | 51.18400 | 1.04014 | 26250 ft | 371 kts | 102° |
| 2026-04-15 11:53 | 51.18185 | 1.08074 | 26859 ft | 367 kts | 102° |
| 2026-04-15 11:54 | 51.17971 | 1.12187 | 27077 ft | 373 kts | 102° |
| 2026-04-15 11:54 | 51.17767 | 1.16272 | 27747 ft | 367 kts | 102° |
| 2026-04-15 11:54 | 51.17578 | 1.20310 | 28194 ft | 368 kts | 102° |
| 2026-04-15 11:54 | 51.17385 | 1.24451 | 28335 ft | 377 kts | 102° |
| 2026-04-15 11:55 | 51.17181 | 1.28670 | 28472 ft | 387 kts | 102° |
| 2026-04-15 11:55 | 51.16965 | 1.33000 | 28615 ft | 396 kts | 102° |
| 2026-04-15 11:55 | 51.16741 | 1.37373 | 28738 ft | 405 kts | 102° |
| 2026-04-15 11:55 | 51.16503 | 1.41894 | 28893 ft | 414 kts | 102° |
| 2026-04-15 11:56 | 51.16245 | 1.46512 | 28999 ft | 423 kts | 102° |
| 2026-04-15 11:56 | 51.15957 | 1.51219 | 29142 ft | 431 kts | 102° |
| 2026-04-15 11:56 | 51.15656 | 1.56021 | 29268 ft | 440 kts | 102° |
| 2026-04-15 11:56 | 51.15343 | 1.60905 | 29406 ft | 448 kts | 102° |
| 2026-04-15 11:57 | 51.15021 | 1.65873 | 29666 ft | 451 kts | 102° |
| 2026-04-15 11:57 | 51.14449 | 1.75188 | 32480 ft | 394 kts | 103° |
| 2026-04-15 11:57 | 51.14194 | 1.79479 | 33198 ft | 387 kts | 103° |
| 2026-04-15 11:58 | 51.13944 | 1.83715 | 33350 ft | 393 kts | 103° |
| 2026-04-15 11:58 | 51.13693 | 1.88074 | 33488 ft | 398 kts | 102° |
| 2026-04-15 11:58 | 51.13449 | 1.92495 | 33584 ft | 404 kts | 101° |
| 2026-04-15 11:58 | 51.13210 | 1.96987 | 33721 ft | 409 kts | 101° |
| 2026-04-15 11:59 | 51.12974 | 2.01528 | 33877 ft | 414 kts | 101° |
| 2026-04-15 11:59 | 51.12742 | 2.06111 | 34129 ft | 416 kts | 101° |
| 2026-04-15 11:59 | 51.12512 | 2.10703 | 34399 ft | 416 kts | 101° |
| 2026-04-15 11:59 | 51.12276 | 2.15311 | 34690 ft | 416 kts | 101° |
| 2026-04-15 12:00 | 51.12035 | 2.19887 | 34987 ft | 415 kts | 101° |
| 2026-04-15 12:00 | 51.11788 | 2.24462 | 35289 ft | 414 kts | 101° |
| 2026-04-15 12:00 | 51.11537 | 2.28955 | 35584 ft | 413 kts | 101° |
| 2026-04-15 12:00 | 51.11279 | 2.33506 | 35875 ft | 412 kts | 101° |
| 2026-04-15 12:01 | 51.11020 | 2.38041 | 36133 ft | 411 kts | 101° |
| 2026-04-15 12:01 | 51.10763 | 2.42578 | 36348 ft | 412 kts | 100° |
| 2026-04-15 12:01 | 51.10505 | 2.47122 | 36540 ft | 414 kts | 100° |
| 2026-04-15 12:01 | 51.10247 | 2.51694 | 36732 ft | 415 kts | 100° |
| 2026-04-15 12:02 | 51.09986 | 2.56269 | 36921 ft | 417 kts | 100° |
| 2026-04-15 12:02 | 51.09720 | 2.60885 | 37110 ft | 418 kts | 100° |
| 2026-04-15 12:02 | 51.09344 | 2.65452 | 37293 ft | 415 kts | 107° |
| 2026-04-15 12:02 | 51.08628 | 2.69880 | 37469 ft | 413 kts | 111° |
| 2026-04-15 12:03 | 51.07829 | 2.74275 | 37639 ft | 415 kts | 111° |
| 2026-04-15 12:03 | 51.07027 | 2.78692 | 37820 ft | 416 kts | 111° |
| 2026-04-15 12:03 | 51.06233 | 2.83063 | 38000 ft | 417 kts | 111° |
| 2026-04-15 12:03 | 51.05425 | 2.87501 | 38132 ft | 419 kts | 111° |
| 2026-04-15 12:04 | 51.04614 | 2.91957 | 38272 ft | 421 kts | 111° |
| 2026-04-15 12:04 | 51.03796 | 2.96446 | 38411 ft | 423 kts | 111° |
| 2026-04-15 12:04 | 51.02972 | 3.00953 | 38561 ft | 425 kts | 111° |
| 2026-04-15 12:04 | 51.02143 | 3.05467 | 38721 ft | 427 kts | 111° |
| 2026-04-15 12:05 | 51.01309 | 3.09994 | 38867 ft | 428 kts | 111° |
| 2026-04-15 12:05 | 51.00472 | 3.14529 | 39022 ft | 428 kts | 111° |
| 2026-04-15 12:05 | 50.99628 | 3.19089 | 39115 ft | 431 kts | 111° |
| 2026-04-15 12:06 | 50.97930 | 3.28236 | 39141 ft | 433 kts | 111° |
| 2026-04-15 12:06 | 50.96223 | 3.37416 | 39140 ft | 436 kts | 110° |
| 2026-04-15 12:07 | 50.94498 | 3.46589 | 39143 ft | 437 kts | 110° |
| 2026-04-15 12:07 | 50.92750 | 3.55821 | 39141 ft | 437 kts | 110° |
| 2026-04-15 12:08 | 50.90995 | 3.65031 | 39161 ft | 437 kts | 110° |
| 2026-04-15 12:08 | 50.89234 | 3.74255 | 39165 ft | 437 kts | 110° |
| 2026-04-15 12:09 | 50.87461 | 3.83476 | 39168 ft | 438 kts | 110° |
| 2026-04-15 12:09 | 50.85676 | 3.92648 | 39169 ft | 438 kts | 110° |
| 2026-04-15 12:10 | 50.83869 | 4.01869 | 39182 ft | 439 kts | 110° |
| 2026-04-15 12:10 | 50.82058 | 4.11096 | 39190 ft | 439 kts | 110° |
| 2026-04-15 12:11 | 50.80241 | 4.20316 | 39201 ft | 439 kts | 110° |
| 2026-04-15 12:11 | 50.78420 | 4.29520 | 39191 ft | 439 kts | 110° |
| 2026-04-15 12:12 | 50.76601 | 4.38659 | 39195 ft | 439 kts | 110° |
| 2026-04-15 12:12 | 50.74765 | 4.47857 | 39200 ft | 439 kts | 110° |
| 2026-04-15 12:13 | 50.72917 | 4.57050 | 39204 ft | 439 kts | 110° |
| 2026-04-15 12:13 | 50.71090 | 4.66247 | 39203 ft | 439 kts | 110° |
| 2026-04-15 12:14 | 50.69310 | 4.75480 | 39191 ft | 440 kts | 109° |
| 2026-04-15 12:14 | 50.67527 | 4.84697 | 39197 ft | 440 kts | 109° |
| 2026-04-15 12:15 | 50.65723 | 4.93915 | 39206 ft | 440 kts | 109° |
| 2026-04-15 12:15 | 50.63874 | 5.03022 | 39212 ft | 440 kts | 110° |
| 2026-04-15 12:16 | 50.61975 | 5.12182 | 39206 ft | 440 kts | 110° |
| 2026-04-15 12:16 | 50.60070 | 5.21325 | 39203 ft | 440 kts | 109° |
| 2026-04-15 12:17 | 50.58160 | 5.30477 | 39207 ft | 440 kts | 109° |
| 2026-04-15 12:17 | 50.56251 | 5.39635 | 39216 ft | 441 kts | 109° |
| 2026-04-15 12:18 | 50.54332 | 5.48797 | 39216 ft | 442 kts | 109° |
| 2026-04-15 12:18 | 50.52387 | 5.58020 | 39205 ft | 452 kts | 109° |
| 2026-04-15 12:19 | 50.50795 | 5.67692 | 39199 ft | 463 kts | 101° |
| 2026-04-15 12:19 | 50.49525 | 5.77647 | 39200 ft | 466 kts | 102° |
| 2026-04-15 12:20 | 50.48218 | 5.87636 | 39199 ft | 466 kts | 102° |
| 2026-04-15 12:20 | 50.46921 | 5.97550 | 39200 ft | 466 kts | 102° |
| 2026-04-15 12:21 | 50.45609 | 6.07517 | 39203 ft | 466 kts | 101° |
| 2026-04-15 12:21 | 50.44282 | 6.17480 | 39212 ft | 466 kts | 101° |
| 2026-04-15 12:22 | 50.42949 | 6.27429 | 39225 ft | 466 kts | 101° |
| 2026-04-15 12:22 | 50.41616 | 6.37378 | 39220 ft | 466 kts | 101° |
| 2026-04-15 12:23 | 50.40265 | 6.47323 | 39220 ft | 466 kts | 102° |
| 2026-04-15 12:23 | 50.38885 | 6.57240 | 39220 ft | 465 kts | 101° |
| 2026-04-15 12:24 | 50.37510 | 6.67078 | 39224 ft | 465 kts | 101° |
| 2026-04-15 12:24 | 50.36119 | 6.76965 | 39227 ft | 465 kts | 101° |
| 2026-04-15 12:25 | 50.34723 | 6.86856 | 39236 ft | 464 kts | 101° |
| 2026-04-15 12:25 | 50.33319 | 6.96736 | 39243 ft | 465 kts | 101° |
| 2026-04-15 12:26 | 50.31912 | 7.06596 | 39243 ft | 464 kts | 101° |
| 2026-04-15 12:26 | 50.30496 | 7.16442 | 39240 ft | 464 kts | 101° |
| 2026-04-15 12:27 | 50.29080 | 7.26227 | 39236 ft | 464 kts | 101° |
| 2026-04-15 12:27 | 50.27640 | 7.36099 | 39237 ft | 464 kts | 101° |
| 2026-04-15 12:28 | 50.26198 | 7.45925 | 39246 ft | 464 kts | 100° |
| 2026-04-15 12:28 | 50.24742 | 7.55755 | 39253 ft | 464 kts | 101° |
| 2026-04-15 12:29 | 50.23297 | 7.65512 | 39254 ft | 464 kts | 100° |
| 2026-04-15 12:29 | 50.21843 | 7.75336 | 39260 ft | 464 kts | 101° |
| 2026-04-15 12:30 | 50.20368 | 7.85160 | 39266 ft | 464 kts | 100° |
| 2026-04-15 12:30 | 50.18884 | 7.94969 | 39273 ft | 464 kts | 100° |
| 2026-04-15 12:31 | 50.17397 | 8.04762 | 39271 ft | 463 kts | 100° |
| 2026-04-15 12:31 | 50.15905 | 8.14536 | 39262 ft | 463 kts | 100° |
| 2026-04-15 12:32 | 50.14402 | 8.24311 | 39259 ft | 463 kts | 100° |
| 2026-04-15 12:32 | 50.12896 | 8.34068 | 39268 ft | 463 kts | 100° |
| 2026-04-15 12:33 | 50.11393 | 8.43743 | 39256 ft | 462 kts | 100° |
| 2026-04-15 12:33 | 50.09873 | 8.53459 | 39242 ft | 461 kts | 100° |
| 2026-04-15 12:34 | 50.08340 | 8.63169 | 39243 ft | 461 kts | 100° |
| 2026-04-15 12:34 | 50.06803 | 8.72862 | 39242 ft | 460 kts | 100° |
| 2026-04-15 12:35 | 50.04399 | 8.82140 | 39239 ft | 467 kts | 119° |
| 2026-04-15 12:35 | 50.00527 | 8.90207 | 39238 ft | 469 kts | 126° |
| 2026-04-15 12:36 | 49.96489 | 8.98181 | 39239 ft | 469 kts | 126° |
| 2026-04-15 12:36 | 49.92439 | 9.06163 | 39241 ft | 470 kts | 126° |
| 2026-04-15 12:37 | 49.88381 | 9.14118 | 39251 ft | 470 kts | 126° |
| 2026-04-15 12:37 | 49.84314 | 9.22069 | 39247 ft | 470 kts | 126° |
| 2026-04-15 12:38 | 49.80273 | 9.29967 | 39237 ft | 470 kts | 126° |
| 2026-04-15 12:38 | 49.76197 | 9.37898 | 39239 ft | 470 kts | 126° |
| 2026-04-15 12:39 | 49.72126 | 9.45800 | 39243 ft | 470 kts | 126° |
| 2026-04-15 12:39 | 49.68043 | 9.53676 | 39256 ft | 470 kts | 126° |
| 2026-04-15 12:40 | 49.63954 | 9.61555 | 39250 ft | 470 kts | 126° |
| 2026-04-15 12:40 | 49.59862 | 9.69426 | 39246 ft | 470 kts | 126° |
| 2026-04-15 12:41 | 49.55790 | 9.77227 | 39243 ft | 470 kts | 126° |
| 2026-04-15 12:41 | 49.51687 | 9.85069 | 39238 ft | 470 kts | 126° |
| 2026-04-15 12:42 | 49.47583 | 9.92894 | 39257 ft | 470 kts | 125° |
| 2026-04-15 12:42 | 49.43473 | 10.00695 | 39247 ft | 469 kts | 126° |
| 2026-04-15 12:43 | 49.39352 | 10.08483 | 39242 ft | 469 kts | 126° |
| 2026-04-15 12:43 | 49.35249 | 10.16226 | 39241 ft | 469 kts | 126° |
| 2026-04-15 12:44 | 49.31121 | 10.24006 | 39247 ft | 470 kts | 126° |
| 2026-04-15 12:44 | 49.26989 | 10.31766 | 39261 ft | 469 kts | 124° |
| 2026-04-15 12:44 | 49.25200 | 10.35886 | 39266 ft | 461 kts | 111° |
| 2026-04-15 12:45 | 49.23826 | 10.40237 | 39264 ft | 460 kts | 111° |
| 2026-04-15 12:45 | 49.21083 | 10.49080 | 39272 ft | 460 kts | 110° |
| 2026-04-15 12:46 | 49.18352 | 10.57938 | 39287 ft | 460 kts | 110° |
| 2026-04-15 12:46 | 49.15606 | 10.66780 | 39298 ft | 461 kts | 111° |
| 2026-04-15 12:47 | 49.12840 | 10.75619 | 39284 ft | 461 kts | 111° |
| 2026-04-15 12:47 | 49.10069 | 10.84439 | 39270 ft | 460 kts | 111° |
| 2026-04-15 12:48 | 49.07317 | 10.93181 | 39268 ft | 460 kts | 111° |
| 2026-04-15 12:48 | 49.04541 | 11.01975 | 39240 ft | 460 kts | 111° |
| 2026-04-15 12:49 | 49.01755 | 11.10758 | 39249 ft | 460 kts | 111° |
| 2026-04-15 12:49 | 48.99434 | 11.18039 | 39240 ft | 460 kts | 111° |
| 2026-04-15 12:50 | 48.96640 | 11.26792 | 39231 ft | 459 kts | 111° |
| 2026-04-15 12:50 | 48.93852 | 11.35533 | 39237 ft | 459 kts | 111° |
| 2026-04-15 12:51 | 48.91075 | 11.44184 | 39215 ft | 446 kts | 111° |
| 2026-04-15 12:51 | 48.89724 | 11.48352 | 39227 ft | 434 kts | 111° |
| 2026-04-15 12:51 | 48.88402 | 11.52428 | 39218 ft | 425 kts | 111° |
| 2026-04-15 12:52 | 48.85827 | 11.60389 | 39220 ft | 422 kts | 111° |
| 2026-04-15 12:52 | 48.83234 | 11.68399 | 39221 ft | 422 kts | 111° |
| 2026-04-15 12:53 | 48.80638 | 11.76386 | 39220 ft | 422 kts | 111° |
| 2026-04-15 12:53 | 48.78035 | 11.84366 | 39221 ft | 422 kts | 111° |
| 2026-04-15 12:54 | 48.75440 | 11.92293 | 39242 ft | 422 kts | 112° |
| 2026-04-15 12:54 | 48.72819 | 12.00265 | 39244 ft | 422 kts | 112° |
| 2026-04-15 12:55 | 48.70199 | 12.08228 | 39245 ft | 422 kts | 112° |
| 2026-04-15 12:55 | 48.67575 | 12.16181 | 39245 ft | 422 kts | 112° |
| 2026-04-15 12:56 | 48.64945 | 12.24116 | 39239 ft | 422 kts | 112° |
| 2026-04-15 12:56 | 48.62315 | 12.32038 | 39249 ft | 421 kts | 113° |
| 2026-04-15 12:57 | 48.59687 | 12.39893 | 39242 ft | 421 kts | 113° |
| 2026-04-15 12:57 | 48.57037 | 12.47801 | 39240 ft | 421 kts | 113° |
| 2026-04-15 12:58 | 48.54390 | 12.55688 | 39225 ft | 423 kts | 113° |
| 2026-04-15 12:58 | 48.51683 | 12.63731 | 39213 ft | 435 kts | 113° |
| 2026-04-15 12:59 | 48.47498 | 12.76127 | 38297 ft | 453 kts | 113° |
| 2026-04-15 12:59 | 48.46062 | 12.80359 | 37575 ft | 456 kts | 112° |
| 2026-04-15 12:59 | 48.44620 | 12.84598 | 37253 ft | 453 kts | 112° |
| 2026-04-15 13:00 | 48.41735 | 12.93063 | 37213 ft | 457 kts | 112° |
| 2026-04-15 13:00 | 48.38813 | 13.01599 | 37231 ft | 459 kts | 112° |
| 2026-04-15 13:01 | 48.35887 | 13.10131 | 37206 ft | 459 kts | 112° |
| 2026-04-15 13:01 | 48.32955 | 13.18673 | 37204 ft | 459 kts | 112° |
| 2026-04-15 13:02 | 48.30036 | 13.27126 | 37207 ft | 459 kts | 113° |
| 2026-04-15 13:02 | 48.27080 | 13.35624 | 37210 ft | 459 kts | 113° |
| 2026-04-15 13:03 | 48.24122 | 13.44125 | 37223 ft | 459 kts | 113° |
| 2026-04-15 13:03 | 48.21020 | 13.52499 | 37218 ft | 462 kts | 118° |
| 2026-04-15 13:04 | 48.17547 | 13.60609 | 37217 ft | 462 kts | 118° |
| 2026-04-15 13:04 | 48.14073 | 13.68700 | 37210 ft | 462 kts | 118° |
| 2026-04-15 13:05 | 48.10616 | 13.76727 | 37221 ft | 461 kts | 119° |
| 2026-04-15 13:05 | 48.07133 | 13.84789 | 37215 ft | 461 kts | 119° |
| 2026-04-15 13:06 | 48.03649 | 13.92843 | 37213 ft | 461 kts | 119° |
| 2026-04-15 13:06 | 48.00162 | 14.00891 | 37211 ft | 461 kts | 119° |
| 2026-04-15 13:07 | 47.96671 | 14.08928 | 37219 ft | 461 kts | 119° |
| 2026-04-15 13:07 | 47.93160 | 14.16943 | 37226 ft | 461 kts | 120° |
| 2026-04-15 13:08 | 47.89648 | 14.24944 | 37217 ft | 461 kts | 120° |
| 2026-04-15 13:08 | 47.86164 | 14.32878 | 37210 ft | 460 kts | 120° |
| 2026-04-15 13:09 | 47.82656 | 14.40852 | 37199 ft | 460 kts | 120° |
| 2026-04-15 13:09 | 47.79143 | 14.48804 | 37216 ft | 460 kts | 121° |
| 2026-04-15 13:10 | 47.75618 | 14.56752 | 37206 ft | 460 kts | 121° |
| 2026-04-15 13:10 | 47.72090 | 14.64679 | 37210 ft | 460 kts | 121° |
| 2026-04-15 13:11 | 47.68559 | 14.72602 | 37198 ft | 460 kts | 121° |
| 2026-04-15 13:11 | 47.65019 | 14.80534 | 37199 ft | 460 kts | 121° |
| 2026-04-15 13:12 | 47.61500 | 14.88383 | 37206 ft | 460 kts | 122° |
| 2026-04-15 13:12 | 47.57945 | 14.96279 | 37207 ft | 461 kts | 122° |
| 2026-04-15 13:13 | 47.54383 | 15.04168 | 37211 ft | 461 kts | 122° |
| 2026-04-15 13:13 | 47.50812 | 15.12063 | 37212 ft | 461 kts | 122° |
| 2026-04-15 13:14 | 47.47239 | 15.19939 | 37226 ft | 462 kts | 122° |
| 2026-04-15 13:14 | 47.43660 | 15.27819 | 37224 ft | 462 kts | 123° |
| 2026-04-15 13:15 | 47.40074 | 15.35677 | 37218 ft | 461 kts | 123° |
| 2026-04-15 13:15 | 47.36507 | 15.43482 | 37224 ft | 461 kts | 123° |
| 2026-04-15 13:16 | 47.32917 | 15.51304 | 37217 ft | 460 kts | 123° |
| 2026-04-15 13:16 | 47.29321 | 15.59106 | 37225 ft | 460 kts | 123° |
| 2026-04-15 13:17 | 47.25724 | 15.66906 | 37218 ft | 460 kts | 123° |
| 2026-04-15 13:17 | 47.22122 | 15.74694 | 37217 ft | 460 kts | 123° |
| 2026-04-15 13:18 | 47.18514 | 15.82464 | 37217 ft | 460 kts | 124° |
| 2026-04-15 13:18 | 47.14926 | 15.90175 | 37219 ft | 460 kts | 124° |
| 2026-04-15 13:19 | 47.11303 | 15.97936 | 37217 ft | 460 kts | 124° |
| 2026-04-15 13:19 | 47.07683 | 16.05685 | 37214 ft | 460 kts | 124° |
| 2026-04-15 13:20 | 47.04054 | 16.13422 | 37215 ft | 460 kts | 124° |
| 2026-04-15 13:20 | 47.00411 | 16.21145 | 37216 ft | 460 kts | 124° |
| 2026-04-15 13:21 | 46.97234 | 16.29277 | 37211 ft | 460 kts | 118° |
| 2026-04-15 13:21 | 46.94149 | 16.37478 | 37210 ft | 460 kts | 119° |
| 2026-04-15 13:22 | 46.91075 | 16.45610 | 37206 ft | 459 kts | 118° |
| 2026-04-15 13:22 | 46.87982 | 16.53783 | 37214 ft | 459 kts | 119° |
| 2026-04-15 13:23 | 46.84871 | 16.61952 | 37205 ft | 460 kts | 119° |
| 2026-04-15 13:23 | 46.81754 | 16.70125 | 37204 ft | 460 kts | 119° |
| 2026-04-15 13:24 | 46.78654 | 16.78252 | 37207 ft | 460 kts | 119° |
| 2026-04-15 13:24 | 46.75523 | 16.86420 | 37193 ft | 461 kts | 120° |
| 2026-04-15 13:25 | 46.72387 | 16.94581 | 37193 ft | 461 kts | 120° |
| 2026-04-15 13:25 | 46.69242 | 17.02755 | 37189 ft | 462 kts | 120° |
| 2026-04-15 13:26 | 46.66106 | 17.10872 | 37193 ft | 463 kts | 120° |
| 2026-04-15 13:26 | 46.62934 | 17.19025 | 37196 ft | 463 kts | 120° |
| 2026-04-15 13:27 | 46.59748 | 17.27182 | 37197 ft | 463 kts | 120° |
| 2026-04-15 13:27 | 46.56565 | 17.35330 | 37199 ft | 464 kts | 120° |
| 2026-04-15 13:28 | 46.53380 | 17.43475 | 37195 ft | 464 kts | 120° |
| 2026-04-15 13:28 | 46.50189 | 17.51616 | 37193 ft | 464 kts | 120° |
| 2026-04-15 13:29 | 46.47014 | 17.59689 | 37201 ft | 464 kts | 121° |
| 2026-04-15 13:29 | 46.43802 | 17.67801 | 37197 ft | 464 kts | 121° |
| 2026-04-15 13:30 | 46.40587 | 17.75914 | 37184 ft | 464 kts | 121° |
| 2026-04-15 13:30 | 46.37379 | 17.84012 | 37191 ft | 463 kts | 121° |
| 2026-04-15 13:31 | 46.34152 | 17.92101 | 37190 ft | 463 kts | 121° |
| 2026-04-15 13:31 | 46.30922 | 18.00159 | 37192 ft | 463 kts | 121° |
| 2026-04-15 13:32 | 46.27711 | 18.08158 | 37195 ft | 463 kts | 121° |
| 2026-04-15 13:32 | 46.24475 | 18.16203 | 37196 ft | 462 kts | 121° |
| 2026-04-15 13:33 | 46.22857 | 18.20222 | 37045 ft | 463 kts | 122° |
| 2026-04-15 13:33 | 46.21240 | 18.24233 | 36787 ft | 462 kts | 122° |
| 2026-04-15 13:33 | 46.19621 | 18.28243 | 36529 ft | 463 kts | 122° |
| 2026-04-15 13:33 | 46.17998 | 18.32257 | 36278 ft | 463 kts | 122° |
| 2026-04-15 13:34 | 46.16373 | 18.36266 | 36024 ft | 463 kts | 122° |
| 2026-04-15 13:34 | 46.14741 | 18.40281 | 35770 ft | 464 kts | 122° |
| 2026-04-15 13:34 | 46.13106 | 18.44298 | 35522 ft | 464 kts | 122° |
| 2026-04-15 13:34 | 46.11469 | 18.48317 | 35269 ft | 464 kts | 122° |
| 2026-04-15 13:35 | 46.09831 | 18.52333 | 35023 ft | 465 kts | 123° |
| 2026-04-15 13:35 | 46.08214 | 18.56294 | 34805 ft | 465 kts | 123° |
| 2026-04-15 13:35 | 46.06572 | 18.60315 | 34536 ft | 465 kts | 122° |
| 2026-04-15 13:35 | 46.04931 | 18.64332 | 34288 ft | 465 kts | 122° |
| 2026-04-15 13:36 | 46.03286 | 18.68347 | 34032 ft | 466 kts | 123° |
| 2026-04-15 13:36 | 46.01635 | 18.72369 | 33756 ft | 466 kts | 123° |
| 2026-04-15 13:36 | 45.99978 | 18.76391 | 33431 ft | 467 kts | 123° |
| 2026-04-15 13:36 | 45.98308 | 18.80436 | 32339 ft | 474 kts | 123° |
| 2026-04-15 13:37 | 45.96616 | 18.84525 | 31391 ft | 479 kts | 123° |
| 2026-04-15 13:37 | 45.94849 | 18.88602 | 30324 ft | 483 kts | 128° |
| 2026-04-15 13:37 | 45.92690 | 18.92306 | 29271 ft | 482 kts | 138° |
| 2026-04-15 13:37 | 45.90208 | 18.95427 | 28843 ft | 468 kts | 146° |
| 2026-04-15 13:38 | 45.87570 | 18.98003 | 28153 ft | 461 kts | 150° |
| 2026-04-15 13:38 | 45.84890 | 19.00473 | 27501 ft | 455 kts | 150° |
| 2026-04-15 13:38 | 45.82236 | 19.02901 | 26853 ft | 450 kts | 150° |
| 2026-04-15 13:38 | 45.79608 | 19.05291 | 26218 ft | 445 kts | 150° |
| 2026-04-15 13:39 | 45.77000 | 19.07656 | 25575 ft | 441 kts | 150° |
| 2026-04-15 13:39 | 45.74414 | 19.09997 | 24951 ft | 437 kts | 149° |
| 2026-04-15 13:39 | 45.71855 | 19.12314 | 24329 ft | 434 kts | 149° |
| 2026-04-15 13:39 | 45.69314 | 19.14618 | 23708 ft | 431 kts | 149° |
| 2026-04-15 13:40 | 45.66796 | 19.16898 | 23037 ft | 426 kts | 149° |
| 2026-04-15 13:40 | 45.64310 | 19.19148 | 22466 ft | 420 kts | 149° |
| 2026-04-15 13:40 | 45.61856 | 19.21363 | 21896 ft | 415 kts | 149° |
| 2026-04-15 13:40 | 45.59431 | 19.23549 | 21354 ft | 410 kts | 149° |
| 2026-04-15 13:41 | 45.57063 | 19.25685 | 20825 ft | 405 kts | 149° |
| 2026-04-15 13:41 | 45.54684 | 19.27824 | 20306 ft | 402 kts | 149° |
| 2026-04-15 13:41 | 45.52328 | 19.29937 | 19785 ft | 398 kts | 148° |
| 2026-04-15 13:41 | 45.49994 | 19.32032 | 19279 ft | 394 kts | 148° |
| 2026-04-15 13:42 | 45.47682 | 19.34109 | 18760 ft | 391 kts | 149° |
| 2026-04-15 13:42 | 45.45384 | 19.36172 | 18192 ft | 388 kts | 148° |
| 2026-04-15 13:42 | 45.43150 | 19.38301 | 17631 ft | 385 kts | 142° |
| 2026-04-15 13:42 | 45.41225 | 19.40901 | 17092 ft | 381 kts | 131° |
| 2026-04-15 13:43 | 45.39694 | 19.43961 | 16650 ft | 381 kts | 120° |
| 2026-04-15 13:43 | 45.38496 | 19.47316 | 16199 ft | 380 kts | 116° |
| 2026-04-15 13:43 | 45.37347 | 19.50638 | 15755 ft | 377 kts | 116° |
| 2026-04-15 13:43 | 45.36189 | 19.53970 | 15305 ft | 375 kts | 116° |
| 2026-04-15 13:44 | 45.35040 | 19.57277 | 14848 ft | 371 kts | 116° |
| 2026-04-15 13:44 | 45.33896 | 19.60561 | 14420 ft | 370 kts | 116° |
| 2026-04-15 13:44 | 45.32755 | 19.63830 | 13981 ft | 368 kts | 116° |
| 2026-04-15 13:44 | 45.31618 | 19.67077 | 13507 ft | 365 kts | 116° |
| 2026-04-15 13:45 | 45.30489 | 19.70297 | 13070 ft | 362 kts | 117° |
| 2026-04-15 13:45 | 45.29367 | 19.73490 | 12643 ft | 360 kts | 117° |
| 2026-04-15 13:45 | 45.28255 | 19.76662 | 12228 ft | 357 kts | 117° |
| 2026-04-15 13:47 | 45.19840 | 19.95170 | 9827 ft | 318 kts | 160° |
| 2026-04-15 13:47 | 45.17755 | 19.95789 | 9677 ft | 305 kts | 178° |
| 2026-04-15 13:47 | 45.15692 | 19.95421 | 9557 ft | 294 kts | 197° |
| 2026-04-15 13:48 | 45.13892 | 19.94195 | 9212 ft | 283 kts | 217° |
| 2026-04-15 13:48 | 45.12541 | 19.92313 | 9074 ft | 264 kts | 233° |
| 2026-04-15 13:48 | 45.11611 | 19.90169 | 8854 ft | 249 kts | 237° |
| 2026-04-15 13:48 | 45.10384 | 19.88530 | 8452 ft | 242 kts | 206° |
| 2026-04-15 13:49 | 45.08770 | 19.87900 | 8119 ft | 242 kts | 182° |
| 2026-04-15 13:49 | 45.07120 | 19.88204 | 7874 ft | 238 kts | 160° |
| 2026-04-15 13:49 | 45.05705 | 19.89285 | 7522 ft | 237 kts | 144° |
| 2026-04-15 13:49 | 45.04320 | 19.90672 | 6723 ft | 250 kts | 143° |
| 2026-04-15 13:50 | 45.02896 | 19.92130 | 6133 ft | 251 kts | 143° |
| 2026-04-15 13:50 | 45.01495 | 19.93567 | 5663 ft | 246 kts | 143° |
| 2026-04-15 13:50 | 45.00114 | 19.94981 | 5168 ft | 243 kts | 143° |
| 2026-04-15 13:50 | 44.98754 | 19.96368 | 4679 ft | 239 kts | 144° |
| 2026-04-15 13:51 | 44.97414 | 19.97734 | 4143 ft | 237 kts | 143° |
| 2026-04-15 13:51 | 44.96080 | 19.99108 | 3612 ft | 239 kts | 140° |
| 2026-04-15 13:51 | 44.95021 | 20.00878 | 3289 ft | 236 kts | 120° |
| 2026-04-15 13:51 | 44.94184 | 20.02809 | 3069 ft | 230 kts | 120° |
| 2026-04-15 13:52 | 44.93387 | 20.04633 | 3005 ft | 203 kts | 120° |
| 2026-04-15 13:52 | 44.92675 | 20.06253 | 2990 ft | 189 kts | 120° |
| 2026-04-15 13:52 | 44.91991 | 20.07814 | 3009 ft | 185 kts | 120° |
| 2026-04-15 13:52 | 44.91328 | 20.09327 | 3012 ft | 169 kts | 120° |
| 2026-04-15 13:53 | 44.90745 | 20.10653 | 2997 ft | 152 kts | 120° |
| 2026-04-15 13:53 | 44.90200 | 20.11899 | 3008 ft | 147 kts | 120° |
| 2026-04-15 13:53 | 44.89669 | 20.13113 | 3010 ft | 144 kts | 119° |
| 2026-04-15 13:53 | 44.89150 | 20.14324 | 2884 ft | 145 kts | 119° |
| 2026-04-15 13:54 | 44.88640 | 20.15511 | 2622 ft | 142 kts | 118° |
| 2026-04-15 13:54 | 44.88127 | 20.16688 | 2418 ft | 141 kts | 119° |
| 2026-04-15 13:54 | 44.87610 | 20.17866 | 2222 ft | 141 kts | 120° |
| 2026-04-15 13:54 | 44.87093 | 20.19041 | 2026 ft | 141 kts | 120° |
| 2026-04-15 13:55 | 44.86578 | 20.20210 | 1834 ft | 139 kts | 119° |
| 2026-04-15 13:55 | 44.86068 | 20.21366 | 1628 ft | 139 kts | 119° |
| 2026-04-15 13:55 | 44.85555 | 20.22527 | 1432 ft | 140 kts | 119° |
| 2026-04-15 13:55 | 44.85038 | 20.23697 | 1258 ft | 140 kts | 119° |
| 2026-04-15 13:56 | 44.84523 | 20.24862 | 1066 ft | 140 kts | 118° |
| 2026-04-15 13:56 | 44.84005 | 20.26034 | 864 ft | 142 kts | 120° |
| 2026-04-15 13:56 | 44.83487 | 20.27205 | 679 ft | 144 kts | 118° |
| 2026-04-15 13:56 | 44.82960 | 20.28399 | 493 ft | 142 kts | 120° |
| 2026-04-15 13:57 | 44.82442 | 20.29574 | 321 ft | 135 kts | 121° |
| 2026-04-15 13:57 | 44.82083 | 20.30385 | 317 ft | 54 kts | 122° |
| 2026-04-15 13:57 | 44.81934 | 20.30720 | 318 ft | 43 kts | 121° |
| 2026-04-15 13:57 | 44.81781 | 20.31065 | 318 ft | 36 kts | 126° |
| 2026-04-15 13:58 | 44.81650 | 20.31217 | 319 ft | 23 kts | 165° |
| 2026-04-15 13:58 | 44.81510 | 20.31185 | 319 ft | 11 kts | 215° |
| 2026-04-15 13:58 | 44.81499 | 20.31172 | 318 ft | 2 kts | 220° |
| 2026-04-15 13:58 | 44.81476 | 20.31144 | 319 ft | 7 kts | 221° |
| 2026-04-15 13:59 | 44.81462 | 20.31076 | 319 ft | 11 kts | 287° |
| 2026-04-15 13:59 | 44.81515 | 20.30946 | 319 ft | 19 kts | 302° |
| 2026-04-15 13:59 | 44.81601 | 20.30757 | 318 ft | 27 kts | 303° |
| 2026-04-15 13:59 | 44.81715 | 20.30510 | 318 ft | 33 kts | 302° |
| 2026-04-15 14:00 | 44.81846 | 20.30206 | 316 ft | 39 kts | 301° |
| 2026-04-15 14:00 | 44.81990 | 20.29876 | 318 ft | 34 kts | 302° |
| 2026-04-15 14:00 | 44.82082 | 20.29668 | 317 ft | 22 kts | 301° |
| 2026-04-15 14:00 | 44.82087 | 20.29517 | 317 ft | 18 kts | 216° |
| 2026-04-15 14:01 | 44.81924 | 20.29371 | 318 ft | 11 kts | 213° |
| 2026-04-15 14:01 | 44.81931 | 20.29285 | 318 ft | 7 kts | 303° |
| 2026-04-15 14:01 | 44.81935 | 20.29277 | 317 ft | 0 kts | 303° |